sensor_id;sensor_type;location;lat;lon;timestamp;P1;durP1;ratioP1;P2;durP2;ratioP2
35877;SDS011;21982;49.804;24.072;2024-03-02T00:00:00;32.17;;;17.45;;
35877;SDS011;21982;49.804;24.072;2024-03-02T00:02:27;29.48;;;17.30;;
35877;SDS011;21982;49.804;24.072;2024-03-02T00:04:53;36.67;;;18.52;;
35877;SDS011;21982;49.804;24.072;2024-03-02T00:07:22;37.63;;;18.75;;
35877;SDS011;21982;49.804;24.072;2024-03-02T00:09:47;36.58;;;18.55;;
35877;SDS011;21982;49.804;24.072;2024-03-02T00:12:13;35.83;;;18.55;;
35877;SDS011;21982;49.804;24.072;2024-03-02T00:14:41;37.53;;;19.00;;
35877;SDS011;21982;49.804;24.072;2024-03-02T00:17:08;33.38;;;18.45;;
35877;SDS011;21982;49.804;24.072;2024-03-02T00:19:49;35.97;;;18.35;;
35877;SDS011;21982;49.804;24.072;2024-03-02T00:22:15;39.15;;;20.02;;
35877;SDS011;21982;49.804;24.072;2024-03-02T00:24:41;34.75;;;18.65;;
35877;SDS011;21982;49.804;24.072;2024-03-02T00:27:07;38.17;;;19.15;;
35877;SDS011;21982;49.804;24.072;2024-03-02T00:29:32;42.15;;;20.33;;
35877;SDS011;21982;49.804;24.072;2024-03-02T00:31:59;41.88;;;21.45;;
35877;SDS011;21982;49.804;24.072;2024-03-02T00:34:26;43.63;;;21.30;;
35877;SDS011;21982;49.804;24.072;2024-03-02T00:36:51;39.08;;;19.00;;
35877;SDS011;21982;49.804;24.072;2024-03-02T00:39:17;43.70;;;21.75;;
35877;SDS011;21982;49.804;24.072;2024-03-02T00:41:43;42.38;;;22.10;;
35877;SDS011;21982;49.804;24.072;2024-03-02T00:44:12;45.05;;;23.80;;
35877;SDS011;21982;49.804;24.072;2024-03-02T00:46:38;46.67;;;23.65;;
35877;SDS011;21982;49.804;24.072;2024-03-02T00:51:36;44.22;;;24.33;;
35877;SDS011;21982;49.804;24.072;2024-03-02T00:54:05;52.65;;;22.83;;
35877;SDS011;21982;49.804;24.072;2024-03-02T00:58:58;51.35;;;22.67;;
35877;SDS011;21982;49.804;24.072;2024-03-02T01:04:12;56.65;;;22.90;;
35877;SDS011;21982;49.804;24.072;2024-03-02T01:06:39;50.13;;;24.15;;
35877;SDS011;21982;49.804;24.072;2024-03-02T01:24:46;40.40;;;20.70;;
35877;SDS011;21982;49.804;24.072;2024-03-02T01:27:11;44.08;;;21.38;;
35877;SDS011;21982;49.804;24.072;2024-03-02T01:29:37;41.25;;;19.65;;
35877;SDS011;21982;49.804;24.072;2024-03-02T01:32:02;44.00;;;21.58;;
35877;SDS011;21982;49.804;24.072;2024-03-02T01:34:28;38.60;;;21.95;;
35877;SDS011;21982;49.804;24.072;2024-03-02T01:36:53;36.60;;;18.80;;
35877;SDS011;21982;49.804;24.072;2024-03-02T01:39:18;45.45;;;20.77;;
35877;SDS011;21982;49.804;24.072;2024-03-02T01:41:44;38.45;;;19.20;;
35877;SDS011;21982;49.804;24.072;2024-03-02T01:44:09;39.92;;;19.10;;
35877;SDS011;21982;49.804;24.072;2024-03-02T01:46:34;40.28;;;19.90;;
35877;SDS011;21982;49.804;24.072;2024-03-02T01:49:00;38.53;;;19.02;;
35877;SDS011;21982;49.804;24.072;2024-03-02T01:51:26;45.47;;;19.00;;
35877;SDS011;21982;49.804;24.072;2024-03-02T01:53:51;39.78;;;18.70;;
35877;SDS011;21982;49.804;24.072;2024-03-02T01:56:17;38.60;;;19.95;;
35877;SDS011;21982;49.804;24.072;2024-03-02T01:58:42;34.35;;;18.02;;
35877;SDS011;21982;49.804;24.072;2024-03-02T02:01:09;37.00;;;17.48;;
35877;SDS011;21982;49.804;24.072;2024-03-02T02:03:35;38.65;;;18.23;;
35877;SDS011;21982;49.804;24.072;2024-03-02T02:06:00;44.80;;;18.05;;
35877;SDS011;21982;49.804;24.072;2024-03-02T02:08:25;36.88;;;16.85;;
35877;SDS011;21982;49.804;24.072;2024-03-02T02:16:05;37.17;;;16.95;;
35877;SDS011;21982;49.804;24.072;2024-03-02T02:18:31;31.67;;;17.27;;
35877;SDS011;21982;49.804;24.072;2024-03-02T02:20:57;31.13;;;15.23;;
35877;SDS011;21982;49.804;24.072;2024-03-02T02:25:58;31.58;;;16.23;;
35877;SDS011;21982;49.804;24.072;2024-03-02T02:28:23;27.83;;;14.90;;
35877;SDS011;21982;49.804;24.072;2024-03-02T02:30:49;32.85;;;15.75;;
35877;SDS011;21982;49.804;24.072;2024-03-02T02:33:14;30.17;;;16.63;;
35877;SDS011;21982;49.804;24.072;2024-03-02T02:35:40;31.85;;;15.18;;
35877;SDS011;21982;49.804;24.072;2024-03-02T02:38:05;28.42;;;14.90;;
35877;SDS011;21982;49.804;24.072;2024-03-02T02:40:31;29.85;;;15.32;;
35877;SDS011;21982;49.804;24.072;2024-03-02T02:42:57;27.85;;;15.02;;
35877;SDS011;21982;49.804;24.072;2024-03-02T02:45:24;27.90;;;14.75;;
35877;SDS011;21982;49.804;24.072;2024-03-02T02:47:49;41.33;;;17.70;;
35877;SDS011;21982;49.804;24.072;2024-03-02T02:50:14;26.88;;;15.27;;
35877;SDS011;21982;49.804;24.072;2024-03-02T02:52:40;27.88;;;16.67;;
35877;SDS011;21982;49.804;24.072;2024-03-02T03:02:42;31.45;;;15.50;;
35877;SDS011;21982;49.804;24.072;2024-03-02T03:07:58;28.58;;;15.18;;
35877;SDS011;21982;49.804;24.072;2024-03-02T03:10:23;32.75;;;16.50;;
35877;SDS011;21982;49.804;24.072;2024-03-02T03:22:14;27.92;;;15.77;;
35877;SDS011;21982;49.804;24.072;2024-03-02T03:24:39;26.15;;;16.15;;
35877;SDS011;21982;49.804;24.072;2024-03-02T03:27:05;29.92;;;16.35;;
35877;SDS011;21982;49.804;24.072;2024-03-02T03:29:30;27.00;;;15.13;;
35877;SDS011;21982;49.804;24.072;2024-03-02T03:34:34;33.95;;;15.90;;
35877;SDS011;21982;49.804;24.072;2024-03-02T03:37:01;36.38;;;16.42;;
35877;SDS011;21982;49.804;24.072;2024-03-02T03:39:27;38.38;;;17.13;;
35877;SDS011;21982;49.804;24.072;2024-03-02T03:41:53;29.27;;;15.18;;
35877;SDS011;21982;49.804;24.072;2024-03-02T03:44:19;30.95;;;16.33;;
35877;SDS011;21982;49.804;24.072;2024-03-02T03:46:44;26.17;;;15.75;;
35877;SDS011;21982;49.804;24.072;2024-03-02T03:49:11;26.25;;;13.88;;
35877;SDS011;21982;49.804;24.072;2024-03-02T03:51:36;25.60;;;14.10;;
35877;SDS011;21982;49.804;24.072;2024-03-02T03:54:02;24.95;;;14.55;;
35877;SDS011;21982;49.804;24.072;2024-03-02T03:56:28;26.17;;;14.65;;
35877;SDS011;21982;49.804;24.072;2024-03-02T03:58:53;25.00;;;14.35;;
35877;SDS011;21982;49.804;24.072;2024-03-02T04:01:19;24.30;;;12.68;;
35877;SDS011;21982;49.804;24.072;2024-03-02T04:03:44;33.30;;;14.48;;
35877;SDS011;21982;49.804;24.072;2024-03-02T04:06:10;27.17;;;15.05;;
35877;SDS011;21982;49.804;24.072;2024-03-02T04:08:35;31.98;;;16.50;;
35877;SDS011;21982;49.804;24.072;2024-03-02T04:11:00;30.10;;;14.75;;
35877;SDS011;21982;49.804;24.072;2024-03-02T04:13:27;29.83;;;14.00;;
35877;SDS011;21982;49.804;24.072;2024-03-02T04:15:53;30.45;;;16.10;;
35877;SDS011;21982;49.804;24.072;2024-03-02T04:18:19;23.90;;;13.88;;
35877;SDS011;21982;49.804;24.072;2024-03-02T04:20:44;22.55;;;11.98;;
35877;SDS011;21982;49.804;24.072;2024-03-02T04:23:09;25.40;;;13.10;;
35877;SDS011;21982;49.804;24.072;2024-03-02T04:25:35;27.23;;;14.00;;
35877;SDS011;21982;49.804;24.072;2024-03-02T04:28:01;23.63;;;12.77;;
35877;SDS011;21982;49.804;24.072;2024-03-02T04:30:27;24.83;;;14.10;;
35877;SDS011;21982;49.804;24.072;2024-03-02T04:32:53;28.90;;;13.50;;
35877;SDS011;21982;49.804;24.072;2024-03-02T04:35:18;26.30;;;13.63;;
35877;SDS011;21982;49.804;24.072;2024-03-02T04:37:44;22.20;;;13.02;;
35877;SDS011;21982;49.804;24.072;2024-03-02T04:40:09;27.67;;;14.38;;
35877;SDS011;21982;49.804;24.072;2024-03-02T04:42:35;29.40;;;13.85;;
35877;SDS011;21982;49.804;24.072;2024-03-02T04:45:01;26.92;;;13.18;;
35877;SDS011;21982;49.804;24.072;2024-03-02T04:47:26;20.77;;;12.52;;
35877;SDS011;21982;49.804;24.072;2024-03-02T04:49:52;26.13;;;14.57;;
35877;SDS011;21982;49.804;24.072;2024-03-02T04:52:18;27.50;;;14.30;;
35877;SDS011;21982;49.804;24.072;2024-03-02T04:54:43;25.67;;;14.85;;
35877;SDS011;21982;49.804;24.072;2024-03-02T04:57:27;26.20;;;14.57;;
35877;SDS011;21982;49.804;24.072;2024-03-02T04:59:53;26.83;;;13.77;;
35877;SDS011;21982;49.804;24.072;2024-03-02T05:02:18;33.40;;;16.40;;
35877;SDS011;21982;49.804;24.072;2024-03-02T05:04:44;28.77;;;16.45;;
35877;SDS011;21982;49.804;24.072;2024-03-02T05:07:09;29.63;;;15.57;;
35877;SDS011;21982;49.804;24.072;2024-03-02T05:09:35;28.30;;;14.95;;
35877;SDS011;21982;49.804;24.072;2024-03-02T05:12:00;31.60;;;17.80;;
35877;SDS011;21982;49.804;24.072;2024-03-02T05:14:40;24.25;;;12.77;;
35877;SDS011;21982;49.804;24.072;2024-03-02T05:17:06;22.85;;;13.40;;
35877;SDS011;21982;49.804;24.072;2024-03-02T05:19:31;24.80;;;13.15;;
35877;SDS011;21982;49.804;24.072;2024-03-02T05:21:57;27.73;;;13.27;;
35877;SDS011;21982;49.804;24.072;2024-03-02T05:24:22;22.23;;;13.13;;
35877;SDS011;21982;49.804;24.072;2024-03-02T05:26:47;23.95;;;13.23;;
35877;SDS011;21982;49.804;24.072;2024-03-02T05:29:13;25.17;;;14.02;;
35877;SDS011;21982;49.804;24.072;2024-03-02T05:31:38;28.58;;;14.63;;
35877;SDS011;21982;49.804;24.072;2024-03-02T05:34:04;24.13;;;13.82;;
35877;SDS011;21982;49.804;24.072;2024-03-02T05:36:30;28.42;;;13.98;;
35877;SDS011;21982;49.804;24.072;2024-03-02T05:38:56;24.58;;;12.98;;
35877;SDS011;21982;49.804;24.072;2024-03-02T05:41:22;27.75;;;13.63;;
35877;SDS011;21982;49.804;24.072;2024-03-02T05:43:47;22.88;;;13.20;;
35877;SDS011;21982;49.804;24.072;2024-03-02T05:46:12;25.83;;;11.32;;
35877;SDS011;21982;49.804;24.072;2024-03-02T05:48:38;28.00;;;13.73;;
35877;SDS011;21982;49.804;24.072;2024-03-02T05:51:03;31.33;;;15.15;;
35877;SDS011;21982;49.804;24.072;2024-03-02T05:53:29;28.13;;;13.13;;
35877;SDS011;21982;49.804;24.072;2024-03-02T05:55:54;23.52;;;12.65;;
35877;SDS011;21982;49.804;24.072;2024-03-02T05:58:21;28.00;;;14.18;;
35877;SDS011;21982;49.804;24.072;2024-03-02T06:01:05;21.17;;;13.05;;
35877;SDS011;21982;49.804;24.072;2024-03-02T06:03:31;26.55;;;12.57;;
35877;SDS011;21982;49.804;24.072;2024-03-02T06:05:57;24.83;;;11.70;;
35877;SDS011;21982;49.804;24.072;2024-03-02T06:08:22;22.10;;;12.95;;
35877;SDS011;21982;49.804;24.072;2024-03-02T06:10:48;25.13;;;12.57;;
35877;SDS011;21982;49.804;24.072;2024-03-02T06:13:13;22.30;;;11.55;;
35877;SDS011;21982;49.804;24.072;2024-03-02T06:15:38;23.27;;;12.70;;
35877;SDS011;21982;49.804;24.072;2024-03-02T06:18:04;28.60;;;13.07;;
35877;SDS011;21982;49.804;24.072;2024-03-02T06:20:31;21.20;;;11.98;;
35877;SDS011;21982;49.804;24.072;2024-03-02T06:22:57;23.60;;;11.68;;
35877;SDS011;21982;49.804;24.072;2024-03-02T06:25:22;24.20;;;11.10;;
35877;SDS011;21982;49.804;24.072;2024-03-02T06:27:47;22.30;;;11.70;;
35877;SDS011;21982;49.804;24.072;2024-03-02T06:30:13;23.88;;;11.70;;
35877;SDS011;21982;49.804;24.072;2024-03-02T06:32:38;23.42;;;12.80;;
35877;SDS011;21982;49.804;24.072;2024-03-02T06:35:04;24.67;;;13.02;;
35877;SDS011;21982;49.804;24.072;2024-03-02T06:37:32;27.90;;;12.13;;
35877;SDS011;21982;49.804;24.072;2024-03-02T06:39:57;23.00;;;12.55;;
35877;SDS011;21982;49.804;24.072;2024-03-02T06:42:22;21.92;;;10.18;;
35877;SDS011;21982;49.804;24.072;2024-03-02T06:44:49;22.58;;;11.98;;
35877;SDS011;21982;49.804;24.072;2024-03-02T06:47:15;23.63;;;10.98;;
35877;SDS011;21982;49.804;24.072;2024-03-02T06:49:41;22.52;;;11.65;;
35877;SDS011;21982;49.804;24.072;2024-03-02T06:52:07;36.78;;;12.27;;
35877;SDS011;21982;49.804;24.072;2024-03-02T06:54:33;23.67;;;11.10;;
35877;SDS011;21982;49.804;24.072;2024-03-02T06:56:59;20.38;;;9.25;;
35877;SDS011;21982;49.804;24.072;2024-03-02T06:59:25;22.08;;;11.75;;
35877;SDS011;21982;49.804;24.072;2024-03-02T07:01:51;23.73;;;11.63;;
35877;SDS011;21982;49.804;24.072;2024-03-02T07:04:17;19.15;;;10.70;;
35877;SDS011;21982;49.804;24.072;2024-03-02T07:06:42;22.23;;;12.20;;
35877;SDS011;21982;49.804;24.072;2024-03-02T07:09:07;19.75;;;11.07;;
35877;SDS011;21982;49.804;24.072;2024-03-02T07:11:36;23.02;;;11.40;;
35877;SDS011;21982;49.804;24.072;2024-03-02T07:14:01;21.10;;;10.85;;
35877;SDS011;21982;49.804;24.072;2024-03-02T07:16:28;17.65;;;10.60;;
35877;SDS011;21982;49.804;24.072;2024-03-02T07:18:55;19.98;;;10.50;;
35877;SDS011;21982;49.804;24.072;2024-03-02T07:21:21;21.48;;;11.43;;
35877;SDS011;21982;49.804;24.072;2024-03-02T07:23:48;26.42;;;13.00;;
35877;SDS011;21982;49.804;24.072;2024-03-02T07:26:13;24.48;;;12.57;;
35877;SDS011;21982;49.804;24.072;2024-03-02T07:28:41;25.50;;;11.80;;
35877;SDS011;21982;49.804;24.072;2024-03-02T07:31:07;21.08;;;12.02;;
35877;SDS011;21982;49.804;24.072;2024-03-02T07:33:35;21.83;;;11.45;;
35877;SDS011;21982;49.804;24.072;2024-03-02T07:36:00;26.45;;;11.68;;
35877;SDS011;21982;49.804;24.072;2024-03-02T07:38:28;18.30;;;10.20;;
35877;SDS011;21982;49.804;24.072;2024-03-02T07:40:54;25.45;;;12.38;;
35877;SDS011;21982;49.804;24.072;2024-03-02T07:43:20;23.02;;;11.70;;
35877;SDS011;21982;49.804;24.072;2024-03-02T07:45:47;24.52;;;10.43;;
35877;SDS011;21982;49.804;24.072;2024-03-02T07:48:13;29.17;;;11.98;;
35877;SDS011;21982;49.804;24.072;2024-03-02T07:50:43;19.48;;;10.73;;
35877;SDS011;21982;49.804;24.072;2024-03-02T07:53:08;20.73;;;11.25;;
35877;SDS011;21982;49.804;24.072;2024-03-02T07:55:34;20.40;;;10.88;;
35877;SDS011;21982;49.804;24.072;2024-03-02T07:58:00;26.60;;;11.73;;
35877;SDS011;21982;49.804;24.072;2024-03-02T08:00:26;22.80;;;11.95;;
35877;SDS011;21982;49.804;24.072;2024-03-02T08:02:52;26.75;;;11.73;;
35877;SDS011;21982;49.804;24.072;2024-03-02T08:05:18;35.85;;;11.95;;
35877;SDS011;21982;49.804;24.072;2024-03-02T08:07:45;20.92;;;9.98;;
35877;SDS011;21982;49.804;24.072;2024-03-02T08:10:11;27.27;;;11.40;;
35877;SDS011;21982;49.804;24.072;2024-03-02T08:12:37;22.88;;;10.43;;
35877;SDS011;21982;49.804;24.072;2024-03-02T08:15:04;21.25;;;11.30;;
35877;SDS011;21982;49.804;24.072;2024-03-02T08:17:30;32.30;;;12.02;;
35877;SDS011;21982;49.804;24.072;2024-03-02T08:19:57;23.88;;;11.85;;
35877;SDS011;21982;49.804;24.072;2024-03-02T08:22:23;19.98;;;10.63;;
35877;SDS011;21982;49.804;24.072;2024-03-02T08:24:50;24.52;;;10.68;;
35877;SDS011;21982;49.804;24.072;2024-03-02T08:27:16;20.85;;;10.15;;
35877;SDS011;21982;49.804;24.072;2024-03-02T08:29:42;19.38;;;10.45;;
35877;SDS011;21982;49.804;24.072;2024-03-02T08:32:07;21.75;;;10.40;;
35877;SDS011;21982;49.804;24.072;2024-03-02T08:34:33;21.40;;;10.65;;
35877;SDS011;21982;49.804;24.072;2024-03-02T08:37:00;28.10;;;10.70;;
35877;SDS011;21982;49.804;24.072;2024-03-02T08:42:02;22.00;;;12.13;;
35877;SDS011;21982;49.804;24.072;2024-03-02T08:44:29;26.05;;;12.00;;
35877;SDS011;21982;49.804;24.072;2024-03-02T08:46:55;22.45;;;11.57;;
35877;SDS011;21982;49.804;24.072;2024-03-02T08:49:21;21.88;;;11.07;;
35877;SDS011;21982;49.804;24.072;2024-03-02T08:51:47;21.30;;;12.18;;
35877;SDS011;21982;49.804;24.072;2024-03-02T08:54:19;20.83;;;12.07;;
35877;SDS011;21982;49.804;24.072;2024-03-02T08:57:05;20.30;;;9.73;;
35877;SDS011;21982;49.804;24.072;2024-03-02T08:59:33;19.52;;;11.13;;
35877;SDS011;21982;49.804;24.072;2024-03-02T09:02:04;26.02;;;12.23;;
35877;SDS011;21982;49.804;24.072;2024-03-02T09:04:30;24.42;;;11.73;;
35877;SDS011;21982;49.804;24.072;2024-03-02T09:06:55;20.27;;;10.75;;
35877;SDS011;21982;49.804;24.072;2024-03-02T09:09:21;21.52;;;10.80;;
35877;SDS011;21982;49.804;24.072;2024-03-02T09:11:46;24.38;;;12.52;;
35877;SDS011;21982;49.804;24.072;2024-03-02T09:14:12;22.52;;;11.30;;
35877;SDS011;21982;49.804;24.072;2024-03-02T09:16:37;23.63;;;11.40;;
35877;SDS011;21982;49.804;24.072;2024-03-02T09:19:06;24.52;;;11.70;;
35877;SDS011;21982;49.804;24.072;2024-03-02T09:21:35;32.30;;;11.88;;
35877;SDS011;21982;49.804;24.072;2024-03-02T09:24:00;32.05;;;12.18;;
35877;SDS011;21982;49.804;24.072;2024-03-02T09:26:27;30.13;;;11.50;;
35877;SDS011;21982;49.804;24.072;2024-03-02T09:28:52;33.20;;;13.35;;
35877;SDS011;21982;49.804;24.072;2024-03-02T09:31:18;28.83;;;12.55;;
35877;SDS011;21982;49.804;24.072;2024-03-02T09:33:43;36.90;;;13.60;;
35877;SDS011;21982;49.804;24.072;2024-03-02T09:36:18;37.05;;;13.88;;
35877;SDS011;21982;49.804;24.072;2024-03-02T09:38:45;35.00;;;14.70;;
35877;SDS011;21982;49.804;24.072;2024-03-02T09:41:11;38.28;;;14.10;;
35877;SDS011;21982;49.804;24.072;2024-03-02T09:43:37;49.53;;;15.75;;
35877;SDS011;21982;49.804;24.072;2024-03-02T09:46:03;38.58;;;13.93;;
35877;SDS011;21982;49.804;24.072;2024-03-02T09:48:28;34.00;;;12.98;;
35877;SDS011;21982;49.804;24.072;2024-03-02T09:53:33;29.40;;;12.82;;
35877;SDS011;21982;49.804;24.072;2024-03-02T09:56:16;27.05;;;13.02;;
35877;SDS011;21982;49.804;24.072;2024-03-02T10:04:02;23.58;;;11.48;;
35877;SDS011;21982;49.804;24.072;2024-03-02T10:06:30;24.20;;;11.30;;
35877;SDS011;21982;49.804;24.072;2024-03-02T10:08:59;24.25;;;11.07;;
35877;SDS011;21982;49.804;24.072;2024-03-02T10:11:36;22.08;;;11.60;;
35877;SDS011;21982;49.804;24.072;2024-03-02T10:14:08;23.63;;;9.43;;
35877;SDS011;21982;49.804;24.072;2024-03-02T10:16:38;20.08;;;9.27;;
35877;SDS011;21982;49.804;24.072;2024-03-02T10:19:16;20.55;;;10.38;;
35877;SDS011;21982;49.804;24.072;2024-03-02T10:21:43;23.63;;;10.45;;
35877;SDS011;21982;49.804;24.072;2024-03-02T10:24:13;18.05;;;9.23;;
35877;SDS011;21982;49.804;24.072;2024-03-02T10:26:38;17.52;;;9.38;;
35877;SDS011;21982;49.804;24.072;2024-03-02T10:29:04;16.33;;;8.68;;
35877;SDS011;21982;49.804;24.072;2024-03-02T10:31:30;21.58;;;9.52;;
35877;SDS011;21982;49.804;24.072;2024-03-02T10:33:55;20.83;;;9.60;;
35877;SDS011;21982;49.804;24.072;2024-03-02T10:36:22;18.58;;;10.40;;
35877;SDS011;21982;49.804;24.072;2024-03-02T10:38:47;26.13;;;10.18;;
35877;SDS011;21982;49.804;24.072;2024-03-02T10:41:19;18.63;;;9.38;;
35877;SDS011;21982;49.804;24.072;2024-03-02T10:46:13;18.15;;;9.70;;
35877;SDS011;21982;49.804;24.072;2024-03-02T10:48:42;19.42;;;10.98;;
35877;SDS011;21982;49.804;24.072;2024-03-02T10:51:10;22.92;;;9.80;;
35877;SDS011;21982;49.804;24.072;2024-03-02T10:53:36;19.15;;;8.52;;
35877;SDS011;21982;49.804;24.072;2024-03-02T10:56:01;17.98;;;8.93;;
35877;SDS011;21982;49.804;24.072;2024-03-02T10:58:31;19.33;;;9.20;;
35877;SDS011;21982;49.804;24.072;2024-03-02T11:01:03;14.90;;;8.48;;
35877;SDS011;21982;49.804;24.072;2024-03-02T11:03:33;17.10;;;9.23;;
35877;SDS011;21982;49.804;24.072;2024-03-02T11:06:00;19.08;;;9.52;;
35877;SDS011;21982;49.804;24.072;2024-03-02T11:08:31;17.63;;;8.48;;
35877;SDS011;21982;49.804;24.072;2024-03-02T11:11:02;23.02;;;10.75;;
35877;SDS011;21982;49.804;24.072;2024-03-02T11:13:32;18.70;;;8.98;;
35877;SDS011;21982;49.804;24.072;2024-03-02T11:15:59;17.95;;;9.30;;
35877;SDS011;21982;49.804;24.072;2024-03-02T11:18:31;20.40;;;9.52;;
35877;SDS011;21982;49.804;24.072;2024-03-02T11:20:57;17.20;;;10.02;;
35877;SDS011;21982;49.804;24.072;2024-03-02T11:23:34;20.08;;;9.48;;
35877;SDS011;21982;49.804;24.072;2024-03-02T11:28:50;23.75;;;12.23;;
35877;SDS011;21982;49.804;24.072;2024-03-02T11:31:16;19.83;;;11.07;;
35877;SDS011;21982;49.804;24.072;2024-03-02T11:33:41;20.58;;;11.88;;
35877;SDS011;21982;49.804;24.072;2024-03-02T11:36:08;23.58;;;11.70;;
35877;SDS011;21982;49.804;24.072;2024-03-02T11:38:43;20.80;;;11.57;;
35877;SDS011;21982;49.804;24.072;2024-03-02T11:41:10;18.42;;;10.18;;
35877;SDS011;21982;49.804;24.072;2024-03-02T11:43:40;21.40;;;10.63;;
35877;SDS011;21982;49.804;24.072;2024-03-02T11:46:07;20.55;;;10.38;;
35877;SDS011;21982;49.804;24.072;2024-03-02T11:48:38;17.65;;;9.60;;
35877;SDS011;21982;49.804;24.072;2024-03-02T11:51:04;21.15;;;8.57;;
35877;SDS011;21982;49.804;24.072;2024-03-02T11:53:31;22.35;;;9.25;;
35877;SDS011;21982;49.804;24.072;2024-03-02T11:56:00;17.65;;;9.27;;
35877;SDS011;21982;49.804;24.072;2024-03-02T11:58:30;16.58;;;8.60;;
35877;SDS011;21982;49.804;24.072;2024-03-02T12:00:56;17.70;;;7.85;;
35877;SDS011;21982;49.804;24.072;2024-03-02T12:03:24;15.85;;;7.50;;
35877;SDS011;21982;49.804;24.072;2024-03-02T12:05:55;14.90;;;7.68;;
35877;SDS011;21982;49.804;24.072;2024-03-02T12:08:21;18.33;;;7.93;;
35877;SDS011;21982;49.804;24.072;2024-03-02T12:11:00;19.83;;;8.13;;
35877;SDS011;21982;49.804;24.072;2024-03-02T12:13:30;15.45;;;7.53;;
35877;SDS011;21982;49.804;24.072;2024-03-02T12:15:56;17.90;;;7.47;;
35877;SDS011;21982;49.804;24.072;2024-03-02T12:18:21;19.13;;;7.85;;
35877;SDS011;21982;49.804;24.072;2024-03-02T12:20:51;13.23;;;7.35;;
35877;SDS011;21982;49.804;24.072;2024-03-02T12:23:43;14.57;;;7.50;;
35877;SDS011;21982;49.804;24.072;2024-03-02T12:26:09;16.38;;;7.25;;
35877;SDS011;21982;49.804;24.072;2024-03-02T12:28:37;13.68;;;7.50;;
35877;SDS011;21982;49.804;24.072;2024-03-02T12:31:05;15.57;;;8.35;;
35877;SDS011;21982;49.804;24.072;2024-03-02T12:33:31;18.02;;;8.07;;
35877;SDS011;21982;49.804;24.072;2024-03-02T12:36:16;11.90;;;5.80;;
35877;SDS011;21982;49.804;24.072;2024-03-02T12:38:45;13.98;;;6.38;;
35877;SDS011;21982;49.804;24.072;2024-03-02T12:41:14;15.93;;;7.60;;
35877;SDS011;21982;49.804;24.072;2024-03-02T12:43:40;28.23;;;9.05;;
35877;SDS011;21982;49.804;24.072;2024-03-02T12:46:06;14.55;;;7.50;;
35877;SDS011;21982;49.804;24.072;2024-03-02T12:48:34;13.07;;;6.80;;
35877;SDS011;21982;49.804;24.072;2024-03-02T12:51:01;19.67;;;6.95;;
35877;SDS011;21982;49.804;24.072;2024-03-02T12:53:26;20.38;;;8.70;;
35877;SDS011;21982;49.804;24.072;2024-03-02T12:55:52;18.60;;;8.25;;
35877;SDS011;21982;49.804;24.072;2024-03-02T12:58:19;19.88;;;7.40;;
35877;SDS011;21982;49.804;24.072;2024-03-02T13:00:46;14.20;;;6.63;;
35877;SDS011;21982;49.804;24.072;2024-03-02T13:03:12;23.63;;;7.82;;
35877;SDS011;21982;49.804;24.072;2024-03-02T13:05:38;10.68;;;5.97;;
35877;SDS011;21982;49.804;24.072;2024-03-02T13:08:04;12.70;;;5.22;;
35877;SDS011;21982;49.804;24.072;2024-03-02T13:10:32;10.50;;;5.95;;
35877;SDS011;21982;49.804;24.072;2024-03-02T13:12:58;13.73;;;6.65;;
35877;SDS011;21982;49.804;24.072;2024-03-02T13:15:23;11.57;;;5.72;;
35877;SDS011;21982;49.804;24.072;2024-03-02T13:17:48;13.38;;;6.90;;
35877;SDS011;21982;49.804;24.072;2024-03-02T13:20:15;17.70;;;5.95;;
35877;SDS011;21982;49.804;24.072;2024-03-02T13:22:43;15.10;;;6.40;;
35877;SDS011;21982;49.804;24.072;2024-03-02T13:25:09;11.50;;;6.07;;
35877;SDS011;21982;49.804;24.072;2024-03-02T13:27:35;12.30;;;5.82;;
35877;SDS011;21982;49.804;24.072;2024-03-02T13:30:02;14.10;;;5.95;;
35877;SDS011;21982;49.804;24.072;2024-03-02T13:32:30;14.35;;;6.45;;
35877;SDS011;21982;49.804;24.072;2024-03-02T13:34:56;15.35;;;6.00;;
35877;SDS011;21982;49.804;24.072;2024-03-02T13:37:21;14.60;;;6.07;;
35877;SDS011;21982;49.804;24.072;2024-03-02T13:39:47;13.48;;;6.32;;
35877;SDS011;21982;49.804;24.072;2024-03-02T13:42:13;11.73;;;6.50;;
35877;SDS011;21982;49.804;24.072;2024-03-02T13:44:40;15.50;;;7.28;;
35877;SDS011;21982;49.804;24.072;2024-03-02T13:47:09;13.95;;;5.75;;
35877;SDS011;21982;49.804;24.072;2024-03-02T13:49:34;14.77;;;6.18;;
35877;SDS011;21982;49.804;24.072;2024-03-02T13:52:04;14.02;;;5.93;;
35877;SDS011;21982;49.804;24.072;2024-03-02T13:54:43;16.00;;;7.07;;
35877;SDS011;21982;49.804;24.072;2024-03-02T13:57:10;18.77;;;7.43;;
35877;SDS011;21982;49.804;24.072;2024-03-02T13:59:37;11.50;;;6.10;;
35877;SDS011;21982;49.804;24.072;2024-03-02T14:02:03;16.15;;;9.10;;
35877;SDS011;21982;49.804;24.072;2024-03-02T14:04:33;13.65;;;6.30;;
35877;SDS011;21982;49.804;24.072;2024-03-02T14:06:59;12.85;;;6.63;;
35877;SDS011;21982;49.804;24.072;2024-03-02T14:09:25;16.27;;;7.22;;
35877;SDS011;21982;49.804;24.072;2024-03-02T14:11:52;14.18;;;7.18;;
35877;SDS011;21982;49.804;24.072;2024-03-02T14:14:17;14.43;;;7.30;;
35877;SDS011;21982;49.804;24.072;2024-03-02T14:16:43;21.45;;;7.03;;
35877;SDS011;21982;49.804;24.072;2024-03-02T14:19:10;16.30;;;7.50;;
35877;SDS011;21982;49.804;24.072;2024-03-02T14:21:37;17.63;;;7.50;;
35877;SDS011;21982;49.804;24.072;2024-03-02T14:24:02;14.77;;;6.53;;
35877;SDS011;21982;49.804;24.072;2024-03-02T14:26:28;22.08;;;8.40;;
35877;SDS011;21982;49.804;24.072;2024-03-02T14:28:54;18.35;;;6.75;;
35877;SDS011;21982;49.804;24.072;2024-03-02T14:31:20;18.65;;;7.70;;
35877;SDS011;21982;49.804;24.072;2024-03-02T14:33:46;31.98;;;8.27;;
35877;SDS011;21982;49.804;24.072;2024-03-02T14:36:11;36.97;;;9.57;;
35877;SDS011;21982;49.804;24.072;2024-03-02T14:38:37;18.60;;;7.57;;
35877;SDS011;21982;49.804;24.072;2024-03-02T14:41:03;21.33;;;7.80;;
35877;SDS011;21982;49.804;24.072;2024-03-02T14:43:29;27.48;;;8.52;;
35877;SDS011;21982;49.804;24.072;2024-03-02T14:45:54;20.73;;;7.50;;
35877;SDS011;21982;49.804;24.072;2024-03-02T14:48:20;21.33;;;8.05;;
35877;SDS011;21982;49.804;24.072;2024-03-02T14:50:46;29.35;;;8.75;;
35877;SDS011;21982;49.804;24.072;2024-03-02T14:53:12;23.05;;;7.93;;
35877;SDS011;21982;49.804;24.072;2024-03-02T14:55:37;29.92;;;9.48;;
35877;SDS011;21982;49.804;24.072;2024-03-02T14:58:03;31.85;;;9.88;;
35877;SDS011;21982;49.804;24.072;2024-03-02T15:00:28;25.25;;;8.50;;
35877;SDS011;21982;49.804;24.072;2024-03-02T15:02:54;18.88;;;7.10;;
35877;SDS011;21982;49.804;24.072;2024-03-02T15:05:19;22.83;;;8.02;;
35877;SDS011;21982;49.804;24.072;2024-03-02T15:07:45;19.88;;;7.53;;
35877;SDS011;21982;49.804;24.072;2024-03-02T15:10:10;17.38;;;7.13;;
35877;SDS011;21982;49.804;24.072;2024-03-02T15:12:36;18.20;;;8.23;;
35877;SDS011;21982;49.804;24.072;2024-03-02T15:15:02;16.17;;;7.43;;
35877;SDS011;21982;49.804;24.072;2024-03-02T15:17:27;20.35;;;8.07;;
35877;SDS011;21982;49.804;24.072;2024-03-02T15:19:53;15.77;;;7.20;;